createdAt,value
2022-08-21T07:24:07.807Z,18.67
2022-08-21T07:27:17.496Z,18.97
2022-08-21T07:30:27.877Z,19.30
2022-08-21T07:33:38.028Z,19.64
2022-08-21T07:36:48.041Z,19.95
2022-08-21T07:40:00.557Z,20.31
2022-08-21T07:43:10.316Z,20.71
2022-08-21T07:46:20.355Z,21.03
2022-08-21T07:49:31.024Z,21.41
2022-08-21T07:52:41.359Z,21.72
2022-08-21T07:55:52.389Z,21.96
2022-08-21T07:59:03.619Z,22.27
2022-08-21T08:02:24.076Z,22.64
2022-08-21T08:05:34.046Z,23.01
2022-08-21T08:08:44.175Z,23.60
2022-08-21T08:11:55.075Z,24.25
2022-08-21T08:15:09.667Z,24.53
2022-08-21T08:18:19.563Z,24.76
2022-08-21T08:21:29.191Z,24.96
2022-08-21T08:24:40.720Z,25.00
2022-08-21T08:27:51.818Z,25.12
2022-08-21T08:31:02.465Z,25.60
2022-08-21T08:34:12.077Z,26.22
2022-08-21T08:37:35.062Z,26.86
2022-08-21T08:40:53.292Z,27.18
2022-08-21T08:44:08.228Z,27.57
2022-08-21T08:47:20.260Z,27.52
2022-08-21T08:50:40.333Z,27.58
2022-08-21T08:53:54.736Z,27.57
2022-08-21T08:57:09.532Z,27.76
2022-08-21T09:00:24.057Z,27.72
2022-08-21T09:03:34.904Z,27.78
2022-08-21T09:06:57.960Z,28.30
2022-08-21T09:10:18.935Z,27.79
2022-08-21T09:13:42.049Z,27.43
2022-08-21T09:17:00.455Z,26.75
2022-08-21T09:20:19.848Z,26.43
2022-08-21T09:23:40.395Z,26.38
2022-08-21T09:26:56.260Z,26.40
2022-08-21T09:30:09.305Z,27.11
2022-08-21T09:33:21.789Z,28.13
2022-08-21T09:36:39.158Z,29.32
2022-08-21T09:39:49.036Z,30.24
2022-08-21T09:43:01.062Z,30.64
2022-08-21T09:46:12.610Z,30.86
2022-08-21T09:49:31.676Z,31.07
2022-08-21T09:52:47.832Z,31.16
2022-08-21T09:56:11.972Z,30.90
2022-08-21T09:59:29.280Z,30.70
2022-08-21T10:02:40.488Z,30.73
2022-08-21T10:05:58.689Z,30.62
2022-08-21T10:09:13.653Z,30.89
2022-08-21T10:12:35.203Z,30.95
2022-08-21T10:15:52.933Z,30.98
2022-08-21T10:19:14.104Z,31.08
2022-08-21T10:22:36.584Z,31.12
2022-08-21T10:25:57.024Z,30.71
2022-08-21T10:29:40.880Z,30.81
2022-08-21T10:33:06.045Z,31.09
2022-08-21T10:36:21.678Z,31.30
2022-08-21T10:39:36.752Z,31.44
2022-08-21T10:42:58.609Z,31.41
2022-08-21T10:46:17.862Z,31.53
2022-08-21T10:49:40.404Z,31.72
2022-08-21T10:53:04.541Z,31.66
2022-08-21T10:56:19.906Z,31.43
2022-08-21T10:59:38.749Z,31.63
2022-08-21T11:02:52.704Z,31.72
2022-08-21T11:06:08.543Z,31.84
2022-08-21T11:09:20.650Z,31.08
2022-08-21T11:12:41.273Z,30.48
2022-08-21T11:15:58.104Z,30.61
2022-08-21T11:19:12.986Z,31.03
2022-08-21T11:22:28.643Z,31.27
2022-08-21T11:25:43.293Z,31.37
2022-08-21T11:28:58.520Z,31.94
2022-08-21T11:32:29.577Z,32.74
2022-08-21T11:35:45.875Z,33.00
2022-08-21T11:39:02.323Z,33.29
2022-08-21T11:42:22.554Z,32.81
2022-08-21T11:45:41.385Z,32.14
2022-08-21T11:49:04.533Z,30.97
2022-08-21T11:52:20.195Z,30.76
2022-08-21T11:55:35.975Z,30.81
2022-08-21T11:58:49.861Z,31.06
2022-08-21T12:02:02.711Z,31.59
2022-08-21T12:05:26.883Z,31.70
2022-08-21T12:08:39.269Z,31.11
2022-08-21T12:11:50.428Z,30.56
2022-08-21T12:15:16.279Z,29.92
2022-08-21T12:18:32.865Z,29.55
2022-08-21T12:21:55.412Z,30.39
2022-08-21T12:25:08.558Z,31.31
2022-08-21T12:28:24.961Z,32.22
2022-08-21T12:31:34.611Z,32.85
2022-08-21T12:34:50.225Z,33.21
2022-08-21T12:38:09.240Z,33.34
2022-08-21T12:41:23.463Z,33.10
2022-08-21T12:44:39.780Z,32.68
2022-08-21T12:47:57.044Z,33.07
2022-08-21T12:51:14.064Z,33.02
2022-08-21T12:54:26.566Z,33.20
2022-08-21T12:57:39.371Z,33.64
2022-08-21T13:00:52.165Z,33.62
2022-08-21T13:04:05.933Z,32.89
2022-08-21T13:07:23.256Z,32.59
2022-08-21T13:10:35.141Z,32.94
2022-08-21T13:13:50.010Z,33.10
2022-08-21T13:17:04.814Z,33.52
2022-08-21T13:20:23.553Z,33.98
2022-08-21T13:23:34.572Z,34.29
2022-08-21T13:26:44.703Z,34.28
2022-08-21T13:30:07.688Z,34.64
2022-08-21T13:33:20.088Z,34.83
2022-08-21T13:36:34.597Z,34.65
2022-08-21T13:39:52.813Z,34.23
2022-08-21T13:43:03.243Z,33.80
2022-08-21T13:46:15.550Z,33.68
2022-08-21T13:49:31.019Z,33.94
2022-08-21T13:52:52.617Z,34.17
2022-08-21T13:56:05.697Z,34.31
2022-08-21T13:59:26.761Z,34.32
2022-08-21T14:02:41.627Z,33.49
2022-08-21T14:05:51.387Z,32.74
2022-08-21T14:09:03.767Z,32.79
2022-08-21T14:12:23.397Z,33.07
2022-08-21T14:15:35.928Z,32.79
2022-08-21T14:18:48.186Z,31.78
2022-08-21T14:21:57.914Z,31.37
2022-08-21T14:25:11.509Z,31.51
2022-08-21T14:28:28.083Z,31.81
2022-08-21T14:31:43.398Z,31.93
2022-08-21T14:34:54.796Z,31.98
2022-08-21T14:38:12.845Z,31.99
2022-08-21T14:41:26.517Z,31.98
2022-08-21T14:44:37.441Z,31.83
2022-08-21T14:47:47.128Z,31.66
2022-08-21T14:51:00.408Z,31.29
2022-08-21T14:54:10.391Z,30.89
2022-08-21T14:57:20.045Z,30.74
2022-08-21T15:00:36.250Z,30.47
2022-08-21T15:03:46.878Z,30.27
2022-08-21T15:06:56.703Z,30.17
2022-08-21T15:10:07.319Z,30.08
2022-08-21T15:13:19.707Z,29.97
2022-08-21T15:16:32.005Z,30.34
2022-08-21T15:19:42.730Z,30.95
2022-08-21T15:22:52.730Z,31.57
2022-08-21T15:26:02.776Z,31.92
2022-08-21T15:29:12.511Z,32.25
2022-08-21T15:32:27.136Z,32.46
2022-08-21T15:35:37.578Z,32.65
2022-08-21T15:38:50.876Z,33.06
2022-08-21T15:42:02.789Z,33.36
2022-08-21T15:45:21.197Z,33.67
2022-08-21T15:48:32.087Z,33.67
2022-08-21T15:51:43.639Z,33.42
2022-08-21T15:54:54.029Z,33.25
2022-08-21T15:58:06.072Z,32.74
2022-08-21T16:01:15.921Z,32.07
2022-08-21T16:04:29.110Z,31.28
2022-08-21T16:07:38.825Z,30.99
2022-08-21T16:10:48.957Z,30.85
2022-08-21T16:13:58.718Z,30.58
2022-08-21T16:17:09.336Z,30.22
2022-08-21T16:20:22.693Z,29.89
2022-08-21T16:23:32.320Z,29.73
2022-08-21T16:26:41.965Z,30.00
2022-08-21T16:29:53.294Z,30.30
2022-08-21T16:33:04.949Z,30.38
2022-08-21T16:36:16.621Z,30.09
2022-08-21T16:39:26.318Z,29.80
2022-08-21T16:42:36.854Z,29.46
2022-08-21T16:45:46.611Z,29.19
2022-08-21T16:48:56.241Z,28.93
2022-08-21T16:52:08.490Z,28.69
2022-08-21T16:55:19.356Z,28.55
2022-08-21T16:58:33.182Z,28.36
2022-08-21T17:01:43.410Z,28.04
2022-08-21T17:04:53.510Z,27.82
2022-08-21T17:08:04.654Z,27.59
2022-08-21T17:11:36.690Z,27.39
2022-08-21T17:14:48.414Z,27.26
2022-08-21T17:17:58.240Z,27.08
2022-08-21T17:21:07.958Z,26.83
2022-08-21T17:24:18.891Z,26.65
2022-08-21T17:27:29.102Z,26.49
2022-08-21T17:30:42.785Z,26.34
2022-08-21T17:33:54.741Z,26.20
2022-08-21T17:37:07.205Z,26.10
2022-08-21T17:40:18.267Z,25.99
2022-08-21T17:43:28.176Z,25.92
2022-08-21T17:46:39.665Z,25.83
2022-08-21T17:49:49.247Z,25.75
2022-08-21T17:52:59.133Z,25.62
2022-08-21T17:56:10.466Z,25.50
2022-08-21T17:59:21.361Z,25.23
2022-08-21T18:02:31.695Z,24.99
2022-08-21T18:05:41.652Z,24.90
2022-08-21T18:08:52.239Z,24.77
2022-08-21T18:12:03.500Z,24.65
2022-08-21T18:15:16.609Z,24.46
2022-08-21T18:18:27.939Z,24.27
2022-08-21T18:21:37.646Z,24.05
2022-08-21T18:24:47.310Z,23.91
2022-08-21T18:27:58.419Z,23.77
2022-08-21T18:31:09.227Z,23.59
2022-08-21T18:34:26.531Z,23.36
2022-08-21T18:37:36.701Z,23.25
2022-08-21T18:40:55.728Z,23.10
2022-08-21T18:44:07.145Z,23.01
2022-08-21T18:47:22.141Z,22.86
2022-08-21T18:50:31.753Z,22.72
2022-08-21T18:53:41.387Z,22.62
2022-08-21T18:56:54.688Z,22.53
2022-08-21T19:00:10.466Z,22.43
2022-08-21T19:03:23.771Z,22.30
2022-08-21T19:06:36.117Z,22.03
2022-08-21T19:10:07.539Z,21.88
2022-08-21T19:13:20.042Z,21.75
2022-08-21T19:16:31.235Z,21.60
2022-08-21T19:19:41.143Z,21.55
2022-08-21T19:22:53.705Z,21.43
2022-08-21T19:26:08.536Z,21.30
2022-08-21T19:29:20.818Z,21.04
2022-08-21T19:32:50.738Z,20.91
2022-08-21T19:36:01.484Z,20.89
2022-08-21T19:39:11.910Z,20.90
2022-08-21T19:42:22.414Z,20.92
2022-08-21T19:45:38.995Z,20.81
2022-08-21T19:48:51.319Z,20.78
2022-08-21T19:52:01.428Z,20.73
2022-08-21T19:55:11.548Z,20.65
2022-08-21T19:58:29.405Z,20.55
2022-08-21T20:01:40.382Z,20.43
2022-08-21T20:04:53.867Z,20.34
2022-08-21T20:08:05.030Z,20.29
2022-08-21T20:11:16.310Z,20.20
2022-08-21T20:14:30.481Z,20.10
2022-08-21T20:17:42.607Z,19.95
2022-08-21T20:20:54.413Z,19.85
